Time;durP1;ratioP1;P1;durP2;ratioP2;P2;SDS_P1;SDS_P2;PMS_P1;PMS_P2;Temp;Humidity;BMP_temperature;BMP_pressure;BME280_temperature;BME280_humidity;BME280_pressure;Samples;Min_cycle;Max_cycle;Signal;HPM_P1;HPM_P2
2021/10/12 00:01:21;;;;;;;1.88;1.00;;;13.00;79.60;;;;;;5009257;28;20030;-75
2021/10/12 00:03:47;;;;;;;2.58;1.17;;;12.90;79.50;;;;;;5023453;28;20030;-76
2021/10/12 00:06:12;;;;;;;3.05;0.98;;;12.90;79.50;;;;;;5017904;28;20067;-75
2021/10/12 00:08:39;;;;;;;2.25;0.80;;;12.90;79.60;;;;;;5007506;28;20030;-75
2021/10/12 00:11:04;;;;;;;3.00;0.90;;;12.90;79.60;;;;;;5011126;28;20104;-76
2021/10/12 00:13:30;;;;;;;1.90;0.90;;;12.90;79.60;;;;;;5007834;28;20447;-75
2021/10/12 00:15:55;;;;;;;2.10;1.00;;;12.90;79.60;;;;;;5007851;28;20480;-76
2021/10/12 00:18:21;;;;;;;2.55;1.05;;;12.90;79.60;;;;;;5007307;28;20267;-75
2021/10/12 00:20:47;;;;;;;1.92;1.08;;;12.90;79.90;;;;;;5007570;28;20018;-75
2021/10/12 00:23:12;;;;;;;2.88;1.10;;;12.90;80.00;;;;;;5007901;28;20453;-76
2021/10/12 00:25:38;;;;;;;3.08;1.10;;;12.90;80.00;;;;;;5006835;28;20055;-76
2021/10/12 00:28:05;;;;;;;1.60;0.98;;;12.90;80.00;;;;;;5007458;28;20105;-76
2021/10/12 00:30:30;;;;;;;2.15;1.00;;;12.90;80.10;;;;;;5007986;28;20357;-77
2021/10/12 00:32:56;;;;;;;2.63;1.20;;;12.90;80.00;;;;;;5007645;28;20037;-76
2021/10/12 00:35:21;;;;;;;2.75;1.00;;;12.90;80.00;;;;;;5008180;28;20085;-76
2021/10/12 00:37:47;;;;;;;2.58;1.10;;;12.80;80.10;;;;;;5006778;28;20053;-76
2021/10/12 00:40:13;;;;;;;3.88;1.17;;;12.80;80.20;;;;;;5007134;28;20102;-76
2021/10/12 00:42:38;;;;;;;2.20;1.00;;;12.80;80.30;;;;;;5007554;28;20030;-76
2021/10/12 00:45:07;;;;;;;3.72;1.30;;;12.80;80.40;;;;;;5007694;28;20046;-76
2021/10/12 00:47:32;;;;;;;2.97;1.10;;;12.80;80.40;;;;;;5006730;28;20388;-75
2021/10/12 00:49:58;;;;;;;3.05;1.17;;;12.80;80.50;;;;;;5005262;28;20026;-75
2021/10/12 00:52:23;;;;;;;1.67;0.70;;;12.80;80.40;;;;;;5010525;28;20030;-76
2021/10/12 00:54:49;;;;;;;3.28;1.00;;;12.80;80.50;;;;;;5010673;28;20022;-77
2021/10/12 00:57:15;;;;;;;2.00;1.08;;;12.80;80.50;;;;;;5010456;28;20038;-77
2021/10/12 00:59:40;;;;;;;1.98;1.10;;;12.90;80.50;;;;;;5010908;28;20097;-76
2021/10/12 01:02:08;;;;;;;1.85;1.00;;;12.80;80.40;;;;;;5010518;28;20122;-77
2021/10/12 01:04:34;;;;;;;3.78;1.50;;;12.80;80.60;;;;;;5010727;28;20029;-76
2021/10/12 01:06:59;;;;;;;3.60;1.20;;;12.80;80.60;;;;;;5010306;28;20034;-75
2021/10/12 01:09:25;;;;;;;2.58;1.20;;;12.80;80.80;;;;;;5010235;28;20030;-75
2021/10/12 01:11:51;;;;;;;3.28;1.10;;;12.70;80.80;;;;;;5010904;28;20040;-76
2021/10/12 01:14:16;;;;;;;3.20;1.10;;;12.80;80.90;;;;;;5009820;28;20026;-75
2021/10/12 01:16:42;;;;;;;3.00;1.00;;;12.80;80.90;;;;;;5010826;28;20045;-75
2021/10/12 01:19:09;;;;;;;1.67;0.80;;;12.70;81.70;;;;;;5009814;28;20037;-75
2021/10/12 01:21:40;;;;;;;2.05;0.82;;;12.70;81.10;;;;;;5010213;28;20483;-75
2021/10/12 01:24:06;;;;;;;3.63;1.20;;;12.70;81.20;;;;;;5009428;28;20058;-75
2021/10/12 01:26:32;;;;;;;2.47;1.30;;;12.70;81.30;;;;;;5010287;28;20053;-75
2021/10/12 01:28:58;;;;;;;3.47;1.00;;;12.60;81.30;;;;;;5009840;28;20083;-76
2021/10/12 01:31:25;;;;;;;2.58;1.10;;;12.60;81.30;;;;;;5010382;28;20030;-75
2021/10/12 01:33:51;;;;;;;1.85;0.90;;;12.70;81.30;;;;;;5010987;28;20156;-76
2021/10/12 01:36:17;;;;;;;2.55;1.00;;;12.70;81.30;;;;;;5007646;28;20464;-76
2021/10/12 01:38:43;;;;;;;2.20;0.80;;;12.70;81.30;;;;;;5009893;28;20029;-76
2021/10/12 01:41:09;;;;;;;2.17;0.80;;;12.70;81.30;;;;;;5010436;28;20070;-76
2021/10/12 01:43:35;;;;;;;2.72;1.13;;;12.70;81.30;;;;;;5009927;28;20037;-76
2021/10/12 01:46:03;;;;;;;3.35;1.40;;;12.80;81.30;;;;;;5010484;28;20025;-76
2021/10/12 01:48:29;;;;;;;2.55;1.00;;;12.70;81.30;;;;;;5009502;28;20051;-76
2021/10/12 01:50:54;;;;;;;2.10;1.20;;;12.70;81.30;;;;;;5010097;28;20080;-76
2021/10/12 01:53:20;;;;;;;2.80;1.15;;;12.70;81.40;;;;;;5009876;28;20022;-75
2021/10/12 01:55:46;;;;;;;3.15;1.40;;;12.70;81.50;;;;;;5010388;28;20029;-76
2021/10/12 01:58:11;;;;;;;3.00;1.13;;;12.60;81.50;;;;;;5009225;28;20090;-76
2021/10/12 02:00:37;;;;;;;2.55;1.00;;;12.60;81.60;;;;;;5009292;28;20026;-76
2021/10/12 02:03:02;;;;;;;1.67;0.90;;;12.70;81.70;;;;;;5010495;28;20436;-76
2021/10/12 02:05:28;;;;;;;2.03;0.95;;;12.70;81.60;;;;;;5010064;28;20037;-76
2021/10/12 02:07:53;;;;;;;3.22;1.30;;;12.70;81.60;;;;;;5007535;28;20048;-76
2021/10/12 02:10:19;;;;;;;2.45;1.10;;;12.60;81.50;;;;;;5018909;28;20101;-77
2021/10/12 02:12:46;;;;;;;2.58;1.00;;;12.60;81.50;;;;;;5009762;28;20044;-77
2021/10/12 02:15:11;;;;;;;2.47;1.02;;;12.60;81.50;;;;;;5008100;28;20502;-77
2021/10/12 02:17:37;;;;;;;2.88;1.10;;;12.60;81.50;;;;;;5008766;28;20061;-77
2021/10/12 02:20:04;;;;;;;4.65;1.40;;;12.60;81.60;;;;;;5009776;28;20513;-76
2021/10/12 02:22:30;;;;;;;2.13;1.23;;;12.60;81.70;;;;;;5002536;28;20034;-78
2021/10/12 02:24:55;;;;;;;5.72;1.45;;;12.60;81.70;;;;;;5009609;28;20026;-77
2021/10/12 02:27:21;;;;;;;3.63;1.35;;;12.60;81.70;;;;;;5009067;28;20029;-76
2021/10/12 02:29:48;;;;;;;4.20;1.42;;;12.60;81.70;;;;;;5006121;28;20018;-76
2021/10/12 02:32:13;;;;;;;2.67;1.10;;;12.60;81.80;;;;;;5008520;28;20064;-76
2021/10/12 02:34:39;;;;;;;2.38;1.17;;;12.50;81.70;;;;;;5009155;28;20054;-76
2021/10/12 02:37:04;;;;;;;3.60;1.40;;;12.60;81.80;;;;;;5008790;28;20125;-75
2021/10/12 02:39:30;;;;;;;3.13;1.20;;;12.50;81.70;;;;;;5009302;28;20020;-77
2021/10/12 02:41:55;;;;;;;4.43;1.35;;;12.50;81.70;;;;;;5009459;28;20053;-76
2021/10/12 02:44:21;;;;;;;2.78;1.20;;;12.50;81.70;;;;;;5007724;28;20032;-76
2021/10/12 02:46:46;;;;;;;3.33;1.30;;;12.50;81.80;;;;;;5008657;28;20026;-76
2021/10/12 02:49:12;;;;;;;3.45;1.10;;;12.40;81.80;;;;;;5009187;28;20022;-76
2021/10/12 02:51:37;;;;;;;4.75;1.30;;;12.40;81.90;;;;;;5009222;28;20026;-75
2021/10/12 02:54:03;;;;;;;3.20;1.20;;;12.40;81.80;;;;;;5009106;28;20038;-76
2021/10/12 02:56:28;;;;;;;2.17;1.02;;;12.40;81.90;;;;;;5009112;28;20102;-75
2021/10/12 02:58:54;;;;;;;3.63;1.33;;;12.40;81.90;;;;;;5007538;28;20177;-75
2021/10/12 03:01:19;;;;;;;4.25;1.17;;;12.40;82.00;;;;;;5009019;28;20086;-76
2021/10/12 03:03:45;;;;;;;3.75;1.30;;;12.30;82.10;;;;;;5009627;28;20143;-76
2021/10/12 03:06:10;;;;;;;1.65;1.00;;;12.40;82.20;;;;;;5008162;28;20026;-76
2021/10/12 03:08:36;;;;;;;1.40;0.95;;;12.40;82.10;;;;;;5008466;28;20104;-76
2021/10/12 03:11:02;;;;;;;2.90;1.23;;;12.30;82.10;;;;;;5008663;28;20439;-75
2021/10/12 03:13:27;;;;;;;2.67;1.10;;;12.30;82.10;;;;;;5009024;28;20034;-76
2021/10/12 03:15:53;;;;;;;2.78;1.10;;;12.40;82.10;;;;;;5008867;28;20030;-75
2021/10/12 03:18:18;;;;;;;2.83;1.30;;;12.30;82.00;;;;;;5008381;28;20022;-76
2021/10/12 03:20:44;;;;;;;1.70;1.00;;;12.30;82.10;;;;;;5008682;28;20034;-76
2021/10/12 03:23:09;;;;;;;2.10;1.02;;;12.30;82.10;;;;;;5008725;28;20030;-76
2021/10/12 03:25:35;;;;;;;1.88;1.08;;;12.30;82.10;;;;;;5008942;28;20046;-76
2021/10/12 03:28:01;;;;;;;3.08;1.00;;;12.30;82.20;;;;;;5007944;28;20037;-75
2021/10/12 03:30:26;;;;;;;2.85;1.00;;;12.30;82.30;;;;;;5008715;28;20464;-76
2021/10/12 03:32:52;;;;;;;3.95;1.20;;;12.20;82.30;;;;;;5009346;28;20429;-76
2021/10/12 03:35:25;;;;;;;2.55;0.95;;;12.20;82.30;;;;;;5008171;28;20018;-76
2021/10/12 03:37:51;;;;;;;2.42;1.00;;;12.20;82.30;;;;;;5002771;28;20030;-76
2021/10/12 03:40:16;;;;;;;4.03;1.00;;;12.20;82.30;;;;;;5008878;28;20026;-76
2021/10/12 03:42:42;;;;;;;1.75;0.77;;;12.20;82.40;;;;;;5008508;28;20117;-76
2021/10/12 03:45:08;;;;;;;1.70;0.90;;;12.20;82.50;;;;;;5008432;28;20026;-76
2021/10/12 03:47:33;;;;;;;3.72;1.00;;;12.20;82.50;;;;;;5008119;28;20388;-76
2021/10/12 03:49:59;;;;;;;2.97;0.95;;;12.20;82.50;;;;;;5007391;28;20025;-77
2021/10/12 03:52:24;;;;;;;2.92;1.00;;;12.20;82.60;;;;;;5000999;28;20025;-75
2021/10/12 03:54:50;;;;;;;1.55;0.70;;;12.20;82.50;;;;;;5008291;28;20377;-76
2021/10/12 03:57:16;;;;;;;1.38;0.70;;;12.30;82.50;;;;;;5006204;28;20380;-75
2021/10/12 03:59:41;;;;;;;1.23;0.88;;;12.20;82.40;;;;;;5008337;28;20223;-76
2021/10/12 04:02:07;;;;;;;2.10;0.70;;;12.20;82.50;;;;;;5008031;28;20034;-76
2021/10/12 04:04:32;;;;;;;4.20;1.00;;;12.20;82.50;;;;;;5006743;28;20042;-76
2021/10/12 04:06:58;;;;;;;2.80;1.00;;;12.20;82.60;;;;;;5006584;28;20037;-77
2021/10/12 04:09:23;;;;;;;2.80;0.90;;;12.20;82.60;;;;;;5005687;28;20075;-76
2021/10/12 04:11:49;;;;;;;2.30;0.70;;;12.20;82.60;;;;;;5028595;28;20517;-76
2021/10/12 04:14:14;;;;;;;3.22;0.90;;;12.20;82.60;;;;;;5047889;28;20024;-76
2021/10/12 04:16:40;;;;;;;2.60;1.10;;;12.20;82.70;;;;;;5053800;28;20483;-76
2021/10/12 04:19:05;;;;;;;2.20;0.80;;;12.20;82.70;;;;;;5054169;28;20027;-77
2021/10/12 04:21:31;;;;;;;2.88;0.82;;;12.10;82.70;;;;;;5064565;28;20104;-77
2021/10/12 04:23:56;;;;;;;2.30;1.00;;;12.10;82.70;;;;;;5059067;28;20030;-77
2021/10/12 04:26:24;;;;;;;2.83;0.60;;;12.10;82.80;;;;;;5057791;28;20039;-75
2021/10/12 04:28:50;;;;;;;2.33;0.93;;;12.10;82.90;;;;;;5055490;28;20018;-76
2021/10/12 04:31:16;;;;;;;4.35;0.80;;;12.10;82.80;;;;;;5069997;28;20048;-76
2021/10/12 04:33:41;;;;;;;2.65;0.85;;;12.10;82.80;;;;;;5063855;28;20020;-77
2021/10/12 04:36:07;;;;;;;3.28;1.20;;;12.10;82.90;;;;;;5036663;28;20028;-76
2021/10/12 04:38:32;;;;;;;4.05;1.20;;;12.00;83.10;;;;;;5047943;28;20041;-76
2021/10/12 04:40:58;;;;;;;1.30;0.70;;;12.00;83.30;;;;;;5011198;28;20037;-77
2021/10/12 04:43:24;;;;;;;1.55;0.80;;;12.10;83.40;;;;;;5011072;28;20038;-76
2021/10/12 04:45:50;;;;;;;3.08;0.90;;;12.00;83.40;;;;;;5010911;28;20026;-76
2021/10/12 04:48:16;;;;;;;2.45;0.90;;;12.10;83.40;;;;;;5009824;28;20073;-78
2021/10/12 04:50:41;;;;;;;1.70;0.70;;;12.10;83.50;;;;;;5011728;28;20014;-77
2021/10/12 04:53:07;;;;;;;3.88;1.17;;;12.10;83.40;;;;;;5010103;28;20045;-78
2021/10/12 04:55:33;;;;;;;3.28;1.08;;;12.10;83.30;;;;;;5010247;28;20065;-77
2021/10/12 04:57:58;;;;;;;4.22;1.40;;;12.10;83.40;;;;;;5010861;28;20515;-78
2021/10/12 05:00:24;;;;;;;3.20;0.90;;;12.10;83.50;;;;;;5010420;28;20075;-77
2021/10/12 05:02:50;;;;;;;1.52;0.88;;;12.10;83.50;;;;;;5010645;28;20034;-78
2021/10/12 05:05:15;;;;;;;5.28;1.48;;;12.10;83.40;;;;;;5010810;28;20021;-77
2021/10/12 05:07:41;;;;;;;2.25;0.93;;;12.10;83.40;;;;;;5009079;28;20041;-78
2021/10/12 05:10:07;;;;;;;2.28;1.00;;;12.10;83.50;;;;;;5010567;28;20030;-77
2021/10/12 05:12:33;;;;;;;2.10;0.98;;;12.10;83.60;;;;;;5009723;28;20028;-77
2021/10/12 05:14:59;;;;;;;2.58;0.93;;;12.10;83.60;;;;;;5010267;28;20033;-77
2021/10/12 05:17:34;;;;;;;1.42;0.80;;;12.10;83.60;;;;;;5009569;28;20105;-78
2021/10/12 05:20:00;;;;;;;1.58;0.70;;;12.10;83.60;;;;;;5008703;28;20030;-78
2021/10/12 05:22:25;;;;;;;1.70;0.80;;;12.10;84.20;;;;;;5009859;28;20048;-76
2021/10/12 05:24:51;;;;;;;2.97;1.02;;;12.20;83.60;;;;;;5010542;28;20109;-78
2021/10/12 05:27:17;;;;;;;2.38;1.00;;;12.20;83.60;;;;;;5011757;28;20037;-77
2021/10/12 05:29:43;;;;;;;2.38;1.00;;;12.10;83.60;;;;;;5007814;28;20052;-74
2021/10/12 05:32:09;;;;;;;3.35;1.10;;;12.20;83.60;;;;;;5007676;28;20042;-75
2021/10/12 05:34:34;;;;;;;2.92;1.30;;;12.20;84.30;;;;;;5007240;28;20029;-77
2021/10/12 05:37:00;;;;;;;3.10;1.20;;;12.10;83.70;;;;;;5007786;28;20487;-77
2021/10/12 05:39:28;;;;;;;2.95;1.27;;;12.10;83.80;;;;;;5027312;28;20030;-77
2021/10/12 05:41:57;;;;;;;3.83;1.25;;;12.10;83.90;;;;;;5029832;28;20037;-77
2021/10/12 05:44:23;;;;;;;1.95;1.00;;;12.10;83.90;;;;;;5009821;28;20078;-77
2021/10/12 05:46:48;;;;;;;1.95;1.13;;;12.10;83.90;;;;;;5005093;28;20033;-78
2021/10/12 05:49:14;;;;;;;2.97;1.00;;;12.10;84.00;;;;;;5050988;28;20018;-78
2021/10/12 05:51:42;;;;;;;2.60;0.90;;;12.10;84.00;;;;;;5050842;28;20431;-77
2021/10/12 05:54:08;;;;;;;2.35;1.10;;;12.20;84.00;;;;;;5052648;28;20022;-78
2021/10/12 05:56:43;;;;;;;2.03;1.23;;;12.20;83.90;;;;;;5054650;28;20033;-77
2021/10/12 05:59:09;;;;;;;3.92;1.33;;;12.20;84.00;;;;;;5059410;28;20045;-76
2021/10/12 06:01:36;;;;;;;1.75;1.40;;;12.20;84.00;;;;;;5051193;28;20034;-77
2021/10/12 06:04:02;;;;;;;2.15;1.15;;;12.20;84.20;;;;;;5046449;28;20028;-76
2021/10/12 06:06:28;;;;;;;2.85;1.40;;;12.10;84.30;;;;;;5069094;28;20356;-77
2021/10/12 06:08:53;;;;;;;2.55;1.30;;;12.10;84.30;;;;;;5049348;28;20030;-75
2021/10/12 06:11:19;;;;;;;3.63;1.70;;;12.10;84.40;;;;;;5060606;28;20038;-75
2021/10/12 06:13:46;;;;;;;3.22;1.45;;;12.20;84.50;;;;;;5048872;28;20015;-75
2021/10/12 06:16:12;;;;;;;3.80;1.98;;;12.20;84.60;;;;;;5043429;28;20045;-77
2021/10/12 06:18:38;;;;;;;2.50;1.50;;;12.20;84.50;;;;;;5065119;28;20441;-75
2021/10/12 06:21:04;;;;;;;3.10;1.85;;;12.20;84.40;;;;;;5053630;28;20055;-75
2021/10/12 06:23:30;;;;;;;2.83;1.55;;;12.20;84.30;;;;;;5075579;28;20065;-76
2021/10/12 06:25:56;;;;;;;2.97;1.58;;;12.20;84.30;;;;;;5063173;28;20503;-75
2021/10/12 06:28:22;;;;;;;2.55;1.55;;;12.30;84.30;;;;;;5064014;28;20024;-76
2021/10/12 06:30:48;;;;;;;2.63;1.73;;;12.30;84.20;;;;;;5011858;28;20021;-76
2021/10/12 06:33:14;;;;;;;2.78;1.63;;;12.30;84.90;;;;;;5010459;28;20032;-76
2021/10/12 06:35:39;;;;;;;2.50;1.48;;;12.30;84.20;;;;;;5010027;28;20026;-76
2021/10/12 06:38:06;;;;;;;2.63;1.77;;;12.40;84.20;;;;;;5009896;28;20033;-76
2021/10/12 06:40:33;;;;;;;2.35;1.55;;;12.40;84.20;;;;;;5010495;28;20026;-76
2021/10/12 06:42:59;;;;;;;3.20;1.80;;;12.40;84.10;;;;;;5010206;28;20038;-76
2021/10/12 06:45:25;;;;;;;3.35;2.13;;;12.40;84.10;;;;;;5009856;28;20018;-76
2021/10/12 06:47:50;;;;;;;4.00;2.10;;;12.40;84.20;;;;;;5009578;28;20170;-76
2021/10/12 06:50:18;;;;;;;3.60;1.90;;;12.50;84.20;;;;;;5008832;28;20033;-76
2021/10/12 06:52:44;;;;;;;2.65;2.10;;;12.50;84.20;;;;;;5109381;28;20027;-76
2021/10/12 06:55:10;;;;;;;2.85;1.67;;;12.50;84.30;;;;;;5113315;28;20020;-76
2021/10/12 06:57:37;;;;;;;2.08;1.52;;;12.50;84.20;;;;;;5112746;28;20027;-76
2021/10/12 07:00:08;;;;;;;3.53;1.92;;;12.50;84.20;;;;;;5113180;28;20102;-76
2021/10/12 07:02:34;;;;;;;1.52;1.42;;;12.50;84.10;;;;;;5111612;28;20039;-76
2021/10/12 07:05:00;;;;;;;4.15;1.98;;;12.60;84.10;;;;;;5112995;28;20106;-76
2021/10/12 07:07:25;;;;;;;4.38;2.38;;;12.60;84.10;;;;;;5112264;28;20055;-76
2021/10/12 07:09:51;;;;;;;3.83;2.20;;;12.60;84.20;;;;;;5111626;28;20024;-76
2021/10/12 07:12:16;;;;;;;3.47;2.00;;;12.60;84.20;;;;;;5112871;28;20102;-76
2021/10/12 07:14:42;;;;;;;4.07;2.50;;;12.60;84.10;;;;;;5112540;28;20546;-76
2021/10/12 07:17:07;;;;;;;3.40;2.30;;;12.60;84.20;;;;;;5112347;28;20019;-77
2021/10/12 07:19:33;;;;;;;5.63;2.25;;;12.70;84.30;;;;;;5112964;28;20016;-77
2021/10/12 07:21:58;;;;;;;3.83;2.40;;;12.70;84.30;;;;;;5113020;28;20439;-77
2021/10/12 07:24:24;;;;;;;3.08;2.00;;;12.70;84.30;;;;;;5112472;28;20107;-77
2021/10/12 07:26:50;;;;;;;5.28;2.83;;;12.70;84.40;;;;;;5112172;28;20020;-77
2021/10/12 07:29:16;;;;;;;3.75;2.20;;;12.70;84.60;;;;;;5112589;28;20031;-76
2021/10/12 07:31:42;;;;;;;3.17;1.60;;;12.70;84.60;;;;;;5112660;28;20027;-77
2021/10/12 07:34:08;;;;;;;2.53;1.80;;;12.70;84.60;;;;;;5112871;28;20015;-77
2021/10/12 07:36:35;;;;;;;3.67;2.10;;;12.70;84.50;;;;;;5112616;28;20104;-77
2021/10/12 07:39:00;;;;;;;2.78;1.40;;;12.80;84.50;;;;;;5111697;28;20023;-76
2021/10/12 07:41:27;;;;;;;2.90;1.90;;;12.80;84.30;;;;;;5111617;28;20031;-76
2021/10/12 07:43:52;;;;;;;3.08;1.45;;;12.90;84.30;;;;;;5111923;28;20042;-77
2021/10/12 07:46:18;;;;;;;3.40;2.05;;;12.90;84.20;;;;;;5112083;28;20106;-76
2021/10/12 07:48:43;;;;;;;3.22;2.00;;;12.90;84.30;;;;;;5111467;28;20027;-76
2021/10/12 07:51:09;;;;;;;3.67;2.50;;;12.90;84.20;;;;;;5112208;28;20034;-76
2021/10/12 07:53:37;;;;;;;3.95;1.98;;;12.90;84.90;;;;;;5112115;28;20023;-77
2021/10/12 07:56:08;;;;;;;4.13;2.10;;;12.90;84.30;;;;;;5112080;28;20019;-76
2021/10/12 07:58:33;;;;;;;3.20;2.00;;;13.00;84.50;;;;;;5110940;28;20020;-76
2021/10/12 08:00:59;;;;;;;2.95;1.98;;;13.00;84.50;;;;;;5112307;28;20034;-76
2021/10/12 08:03:24;;;;;;;4.00;2.28;;;13.00;84.50;;;;;;5111795;28;20024;-77
2021/10/12 08:05:50;;;;;;;2.35;1.65;;;13.00;85.20;;;;;;5111879;28;20099;-76
2021/10/12 08:08:16;;;;;;;5.25;2.33;;;13.00;84.50;;;;;;5111587;28;20034;-76
2021/10/12 08:10:41;;;;;;;3.80;2.03;;;13.00;84.60;;;;;;5112084;28;20027;-77
2021/10/12 08:13:11;;;;;;;3.75;2.17;;;13.10;84.60;;;;;;5112018;28;20497;-77
2021/10/12 08:15:40;;;;;;;2.38;1.90;;;13.10;84.70;;;;;;5094054;28;20024;-77
2021/10/12 08:18:05;;;;;;;2.95;1.90;;;13.10;84.70;;;;;;5111528;28;20035;-77
2021/10/12 08:20:31;;;;;;;2.03;1.50;;;13.20;84.60;;;;;;5111642;28;20023;-77
2021/10/12 08:22:57;;;;;;;2.00;1.75;;;13.30;84.40;;;;;;5080014;28;20412;-78
2021/10/12 08:25:23;;;;;;;2.90;1.40;;;13.30;84.30;;;;;;5018866;28;20052;-78
2021/10/12 08:27:48;;;;;;;3.20;2.00;;;13.40;84.30;;;;;;5007510;28;20484;-78
2021/10/12 08:30:14;;;;;;;4.55;2.47;;;13.40;84.20;;;;;;5004633;28;20591;-77
2021/10/12 08:32:40;;;;;;;2.10;1.65;;;13.40;84.30;;;;;;5003686;28;20114;-75
2021/10/12 08:35:08;;;;;;;1.77;1.58;;;13.40;84.30;;;;;;5007755;28;20478;-75
2021/10/12 08:37:34;;;;;;;2.50;1.60;;;13.40;84.30;;;;;;4998966;28;20030;-75
2021/10/12 08:40:00;;;;;;;1.33;1.23;;;13.50;84.30;;;;;;5008537;28;20026;-74
2021/10/12 08:42:33;;;;;;;2.35;1.50;;;13.40;84.20;;;;;;5007868;28;20464;-76
2021/10/12 08:45:02;;;;;;;1.85;1.08;;;13.40;84.20;;;;;;5008298;28;20066;-76
2021/10/12 08:47:30;;;;;;;2.85;1.52;;;13.40;84.30;;;;;;5007331;28;20034;-76
2021/10/12 08:49:56;;;;;;;2.60;1.40;;;13.40;84.30;;;;;;5008059;28;20030;-76
2021/10/12 08:52:22;;;;;;;2.63;1.30;;;13.40;84.30;;;;;;5007806;28;20411;-75
2021/10/12 08:54:53;;;;;;;1.83;1.30;;;13.40;84.30;;;;;;5008274;28;20046;-76
2021/10/12 08:57:46;;;;;;;1.77;1.25;;;13.40;84.40;;;;;;5007419;28;20033;-76
2021/10/12 09:00:14;;;;;;;1.48;1.10;;;13.40;84.40;;;;;;5010449;28;20034;-76
2021/10/12 09:03:16;;;;;;;1.70;0.93;;;13.40;85.00;;;;;;5007187;28;20042;-75
2021/10/12 09:05:52;;;;;;;0.70;0.70;;;13.40;84.30;;;;;;5007935;28;20029;-76
2021/10/12 09:08:47;;;;;;;1.55;0.77;;;13.50;84.40;;;;;;5007515;28;20034;-75
2021/10/12 09:11:24;;;;;;;1.60;1.00;;;13.50;84.30;;;;;;5023721;28;20037;-75
2021/10/12 09:14:01;;;;;;;1.48;1.00;;;13.50;84.30;;;;;;5011303;28;20025;-75
2021/10/12 09:16:32;;;;;;;1.95;1.00;;;13.50;84.20;;;;;;5011348;28;20022;-75
2021/10/12 09:18:59;;;;;;;2.92;1.50;;;13.60;84.20;;;;;;5008893;28;20109;-75
2021/10/12 09:21:40;;;;;;;1.77;1.13;;;13.50;84.20;;;;;;5010596;28;20033;-76
2021/10/12 09:24:12;;;;;;;1.33;0.93;;;13.60;84.30;;;;;;5011088;28;20105;-76
2021/10/12 09:26:40;;;;;;;2.42;1.50;;;13.60;84.80;;;;;;5006723;28;20086;-76
2021/10/12 09:29:17;;;;;;;1.63;1.20;;;13.70;84.10;;;;;;5009167;28;20030;-77
2021/10/12 09:31:45;;;;;;;1.30;1.20;;;13.70;84.10;;;;;;5010796;28;20042;-77
2021/10/12 09:34:12;;;;;;;1.70;1.20;;;13.80;84.00;;;;;;5053360;28;20175;-76
2021/10/12 09:36:40;;;;;;;2.70;1.52;;;13.90;84.00;;;;;;5000160;28;20500;-77
2021/10/12 09:39:09;;;;;;;2.63;1.25;;;14.00;83.90;;;;;;5001553;28;20068;-77
2021/10/12 09:41:35;;;;;;;1.95;1.30;;;14.00;83.80;;;;;;4998801;28;20026;-76
2021/10/12 09:44:18;;;;;;;2.13;1.50;;;14.10;83.70;;;;;;5000201;28;20081;-77
2021/10/12 09:46:49;;;;;;;2.88;1.40;;;14.10;83.60;;;;;;5001582;28;20103;-77
2021/10/12 09:49:23;;;;;;;3.25;1.83;;;14.10;84.20;;;;;;4996873;28;20022;-76
2021/10/12 09:52:00;;;;;;;1.98;1.50;;;14.20;83.70;;;;;;5000502;28;20022;-76
2021/10/12 09:54:29;;;;;;;3.10;1.85;;;14.20;83.60;;;;;;5000786;28;20030;-76
2021/10/12 09:56:56;;;;;;;1.65;1.48;;;14.30;83.60;;;;;;4998479;28;20472;-77
2021/10/12 09:59:22;;;;;;;2.85;1.80;;;14.30;83.60;;;;;;5000944;28;20051;-76
2021/10/12 10:01:48;;;;;;;1.52;1.38;;;14.40;83.60;;;;;;5000566;28;20037;-76
2021/10/12 10:04:24;;;;;;;3.00;1.90;;;14.50;83.50;;;;;;4997314;28;20393;-76
2021/10/12 10:06:53;;;;;;;2.50;1.50;;;14.60;83.40;;;;;;5000549;28;20503;-76
2021/10/12 10:09:23;;;;;;;2.83;1.63;;;14.70;83.10;;;;;;5003544;28;20021;-77
2021/10/12 10:11:49;;;;;;;2.67;1.80;;;14.80;83.10;;;;;;4999367;28;20067;-77
2021/10/12 10:14:18;;;;;;;2.47;1.45;;;14.80;83.00;;;;;;4999895;28;20026;-77
2021/10/12 10:16:50;;;;;;;2.15;1.50;;;14.90;83.50;;;;;;4998613;28;20029;-77
2021/10/12 10:19:25;;;;;;;2.25;1.40;;;15.00;82.80;;;;;;5001740;28;20018;-78
2021/10/12 10:21:51;;;;;;;2.15;1.20;;;14.90;82.70;;;;;;4997990;28;20042;-77
2021/10/12 10:24:38;;;;;;;1.17;1.00;;;15.00;82.70;;;;;;5005405;28;20026;-77
2021/10/12 10:27:05;;;;;;;9.63;5.53;;;15.00;82.60;;;;;;5003141;28;20044;-76
2021/10/12 10:29:36;;;;;;;7.38;4.90;;;15.00;83.30;;;;;;5000984;28;20054;-78
2021/10/12 10:32:14;;;;;;;6.32;4.38;;;15.10;82.60;;;;;;4999153;28;20026;-76
2021/10/12 10:34:56;;;;;;;2.67;2.10;;;15.20;82.50;;;;;;5000218;28;20022;-76
2021/10/12 10:37:23;;;;;;;2.78;1.30;;;15.30;82.20;;;;;;5002002;28;20030;-76
2021/10/12 10:40:01;;;;;;;2.17;1.17;;;15.40;82.00;;;;;;5000502;28;20042;-77
2021/10/12 10:42:27;;;;;;;2.03;1.02;;;15.50;82.00;;;;;;5000805;28;20038;-76
2021/10/12 10:44:56;;;;;;;1.40;1.00;;;15.60;81.70;;;;;;4999349;28;20034;-76
2021/10/12 10:47:41;;;;;;;2.08;1.10;;;15.50;81.70;;;;;;4998317;28;20034;-79
2021/10/12 10:50:14;;;;;;;1.17;0.80;;;15.40;81.70;;;;;;5002308;28;20033;-78
2021/10/12 10:52:52;;;;;;;1.50;1.23;;;15.30;81.90;;;;;;5008503;28;20082;-77
2021/10/12 10:55:29;;;;;;;2.35;0.90;;;15.20;82.10;;;;;;5006796;28;20024;-78
2021/10/12 10:58:08;;;;;;;2.35;1.13;;;15.10;82.30;;;;;;5007980;28;20413;-78
2021/10/12 11:00:46;;;;;;;1.90;1.00;;;15.10;82.30;;;;;;5009212;28;20022;-78
2021/10/12 11:03:36;;;;;;;1.05;0.90;;;15.20;83.00;;;;;;5007417;28;20403;-77
2021/10/12 11:06:03;;;;;;;0.95;0.77;;;15.20;82.30;;;;;;5004507;28;20036;-78
2021/10/12 11:08:34;;;;;;;1.55;0.85;;;15.30;82.20;;;;;;5005438;28;20022;-77
2021/10/12 11:11:03;;;;;;;1.23;0.70;;;15.40;82.00;;;;;;5006763;28;20458;-78
2021/10/12 11:13:29;;;;;;;1.20;0.70;;;15.50;81.70;;;;;;5006581;28;20097;-77
2021/10/12 11:15:55;;;;;;;2.25;0.80;;;15.50;81.60;;;;;;5003650;28;20113;-77
2021/10/12 11:18:21;;;;;;;1.98;0.80;;;15.60;81.60;;;;;;4997284;28;20019;-78
2021/10/12 11:20:53;;;;;;;0.88;0.68;;;15.60;81.40;;;;;;5003029;28;20496;-77
2021/10/12 11:23:36;;;;;;;2.17;0.70;;;15.70;81.30;;;;;;4999241;28;20041;-77
2021/10/12 11:26:11;;;;;;;1.65;0.77;;;15.70;81.10;;;;;;5002180;28;20022;-77
2021/10/12 11:28:54;;;;;;;1.42;0.75;;;15.70;81.10;;;;;;4997611;28;20024;-77
2021/10/12 11:31:22;;;;;;;0.80;0.63;;;15.70;81.20;;;;;;5002512;28;20095;-77
2021/10/12 11:33:50;;;;;;;2.38;0.70;;;15.70;81.20;;;;;;4999528;28;20561;-77
2021/10/12 11:36:22;;;;;;;0.77;0.70;;;15.60;81.20;;;;;;5000358;28;20109;-77
2021/10/12 11:39:01;;;;;;;1.77;0.57;;;15.50;81.10;;;;;;5000252;28;20030;-77
2021/10/12 11:41:34;;;;;;;1.55;0.50;;;15.40;81.00;;;;;;5003055;28;20030;-78
2021/10/12 11:44:12;;;;;;;0.88;0.50;;;15.40;80.90;;;;;;5002412;28;20136;-77
2021/10/12 11:46:45;;;;;;;1.50;0.93;;;15.30;81.00;;;;;;5010057;28;20024;-77
2021/10/12 11:49:14;;;;;;;0.77;0.50;;;15.40;81.00;;;;;;5019417;28;20449;-77
2021/10/12 11:51:40;;;;;;;0.93;0.50;;;15.50;80.80;;;;;;5001696;28;20025;-77
2021/10/12 11:54:07;;;;;;;0.32;0.32;;;15.50;80.50;;;;;;5001202;28;20295;-80
2021/10/12 11:56:37;;;;;;;0.63;0.50;;;15.40;80.20;;;;;;5008228;28;20034;-76
2021/10/12 11:59:05;;;;;;;0.32;0.30;;;15.40;80.00;;;;;;5016884;28;20133;-77
2021/10/12 12:01:32;;;;;;;0.60;0.38;;;15.50;79.70;;;;;;5005920;28;20034;-77
2021/10/12 12:03:59;;;;;;;0.40;0.40;;;15.40;79.90;;;;;;5008345;28;20042;-77
2021/10/12 12:06:28;;;;;;;0.73;0.40;;;15.60;79.30;;;;;;5005277;28;20037;-76
2021/10/12 12:08:55;;;;;;;1.13;0.50;;;15.60;78.60;;;;;;5007012;28;20590;-77
2021/10/12 12:11:24;;;;;;;0.30;0.30;;;15.60;78.50;;;;;;5006603;28;20535;-76
2021/10/12 12:13:50;;;;;;;1.00;0.40;;;15.70;78.40;;;;;;5020138;28;20452;-76
2021/10/12 12:16:18;;;;;;;0.85;0.40;;;15.80;78.20;;;;;;5008050;28;20083;-76
2021/10/12 12:18:44;;;;;;;1.48;0.43;;;15.90;78.10;;;;;;5008204;28;20022;-76
2021/10/12 12:21:10;;;;;;;1.67;0.50;;;16.10;77.60;;;;;;5008244;28;20503;-76
2021/10/12 12:23:45;;;;;;;1.13;0.40;;;16.10;76.70;;;;;;5007683;28;20029;-76
2021/10/12 12:26:12;;;;;;;0.40;0.40;;;16.00;76.30;;;;;;5007986;28;20069;-77
2021/10/12 12:28:38;;;;;;;0.30;0.30;;;16.00;76.30;;;;;;5007856;28;20376;-77
2021/10/12 12:31:27;;;;;;;0.40;0.40;;;16.00;76.00;;;;;;5007729;28;20022;-76
2021/10/12 12:33:57;;;;;;;0.90;0.40;;;16.10;75.90;;;;;;5007633;28;20026;-76
2021/10/12 12:36:34;;;;;;;0.50;0.40;;;16.20;76.00;;;;;;5040968;28;20036;-76
2021/10/12 12:39:05;;;;;;;1.85;0.40;;;16.10;75.50;;;;;;5058857;28;20109;-76
2021/10/12 12:41:41;;;;;;;1.38;0.40;;;15.90;75.10;;;;;;5058478;28;20034;-76
2021/10/12 12:44:07;;;;;;;1.17;0.40;;;15.90;75.30;;;;;;5041595;28;20112;-75
2021/10/12 12:46:33;;;;;;;1.83;0.50;;;15.90;75.50;;;;;;5065497;28;20028;-77
2021/10/12 12:49:11;;;;;;;3.03;0.60;;;15.90;75.30;;;;;;5036179;28;20725;-76
2021/10/12 12:51:46;;;;;;;2.03;0.68;;;15.80;74.90;;;;;;5039730;28;20027;-76